sensor_id;sensor_type;location;lat;lon;timestamp;pressure;altitude;pressure_sealevel;temperature;humidity
15750;BME280;7976;52.526;13.326;2023-06-14T00:02:08;101321.13;;;16.84;62.56
15750;BME280;7976;52.526;13.326;2023-06-14T00:04:35;101325.63;;;16.82;62.60
15750;BME280;7976;52.526;13.326;2023-06-14T00:07:04;101318.72;;;16.79;62.55
15750;BME280;7976;52.526;13.326;2023-06-14T00:09:34;101329.59;;;16.73;62.99
15750;BME280;7976;52.526;13.326;2023-06-14T00:12:01;101322.94;;;16.66;63.34
15750;BME280;7976;52.526;13.326;2023-06-14T00:14:30;101326.78;;;16.61;63.67
15750;BME280;7976;52.526;13.326;2023-06-14T00:16:57;101335.78;;;16.57;64.00
15750;BME280;7976;52.526;13.326;2023-06-14T00:19:24;101331.66;;;16.51;64.55
15750;BME280;7976;52.526;13.326;2023-06-14T00:21:52;101332.69;;;16.49;64.57
15750;BME280;7976;52.526;13.326;2023-06-14T00:24:19;101337.97;;;16.49;64.91
15750;BME280;7976;52.526;13.326;2023-06-14T00:26:47;101335.41;;;16.47;64.90
15750;BME280;7976;52.526;13.326;2023-06-14T00:29:14;101324.84;;;16.47;65.09
15750;BME280;7976;52.526;13.326;2023-06-14T00:31:43;101331.91;;;16.47;64.99
15750;BME280;7976;52.526;13.326;2023-06-14T00:34:10;101331.03;;;16.46;65.19
15750;BME280;7976;52.526;13.326;2023-06-14T00:36:37;101332.03;;;16.44;65.43
15750;BME280;7976;52.526;13.326;2023-06-14T00:39:04;101332.19;;;16.41;65.88
15750;BME280;7976;52.526;13.326;2023-06-14T00:41:31;101340.34;;;16.36;66.03
15750;BME280;7976;52.526;13.326;2023-06-14T00:43:58;101330.88;;;16.32;66.38
15750;BME280;7976;52.526;13.326;2023-06-14T00:46:25;101329.25;;;16.29;66.45
15750;BME280;7976;52.526;13.326;2023-06-14T00:48:56;101332.13;;;16.25;66.74
15750;BME280;7976;52.526;13.326;2023-06-14T00:51:26;101334.84;;;16.23;66.89
15750;BME280;7976;52.526;13.326;2023-06-14T00:53:53;101334.75;;;16.25;66.96
15750;BME280;7976;52.526;13.326;2023-06-14T00:56:20;101327.00;;;16.22;67.30
15750;BME280;7976;52.526;13.326;2023-06-14T00:58:50;101330.50;;;16.22;67.72
15750;BME280;7976;52.526;13.326;2023-06-14T01:01:18;101334.16;;;16.20;67.98
15750;BME280;7976;52.526;13.326;2023-06-14T01:03:46;101338.56;;;16.19;67.98
15750;BME280;7976;52.526;13.326;2023-06-14T01:06:23;101334.31;;;16.17;68.36
15750;BME280;7976;52.526;13.326;2023-06-14T01:09:07;101326.38;;;16.17;68.43
15750;BME280;7976;52.526;13.326;2023-06-14T01:11:48;101333.53;;;16.15;68.40
15750;BME280;7976;52.526;13.326;2023-06-14T01:14:17;101334.47;;;16.14;68.66
15750;BME280;7976;52.526;13.326;2023-06-14T01:16:46;101328.25;;;16.15;68.47
15750;BME280;7976;52.526;13.326;2023-06-14T01:19:16;101329.19;;;16.14;68.76
15750;BME280;7976;52.526;13.326;2023-06-14T01:21:45;101332.75;;;16.13;69.08
15750;BME280;7976;52.526;13.326;2023-06-14T01:24:18;101331.91;;;16.12;69.45
15750;BME280;7976;52.526;13.326;2023-06-14T01:26:49;101333.75;;;16.10;69.46
15750;BME280;7976;52.526;13.326;2023-06-14T01:29:17;101331.19;;;16.09;69.51
15750;BME280;7976;52.526;13.326;2023-06-14T01:31:46;101330.25;;;16.10;69.57
15750;BME280;7976;52.526;13.326;2023-06-14T01:34:14;101328.47;;;16.10;69.71
15750;BME280;7976;52.526;13.326;2023-06-14T01:36:44;101331.03;;;16.12;69.67
15750;BME280;7976;52.526;13.326;2023-06-14T01:39:14;101324.81;;;16.13;69.47
15750;BME280;7976;52.526;13.326;2023-06-14T01:41:45;101318.75;;;16.11;69.57
15750;BME280;7976;52.526;13.326;2023-06-14T01:44:16;101320.56;;;16.10;69.72
15750;BME280;7976;52.526;13.326;2023-06-14T01:46:45;101323.28;;;16.09;69.75
15750;BME280;7976;52.526;13.326;2023-06-14T01:49:12;101318.09;;;16.07;69.92
15750;BME280;7976;52.526;13.326;2023-06-14T01:51:39;101323.38;;;16.07;69.86
15750;BME280;7976;52.526;13.326;2023-06-14T01:54:08;101328.66;;;16.07;69.91
15750;BME280;7976;52.526;13.326;2023-06-14T01:56:37;101327.69;;;16.08;69.89
15750;BME280;7976;52.526;13.326;2023-06-14T01:59:06;101333.69;;;16.12;69.94
15750;BME280;7976;52.526;13.326;2023-06-14T02:01:33;101331.97;;;16.11;69.79
15750;BME280;7976;52.526;13.326;2023-06-14T02:04:02;101334.75;;;16.08;69.74
15750;BME280;7976;52.526;13.326;2023-06-14T02:06:29;101327.94;;;16.04;69.82
15750;BME280;7976;52.526;13.326;2023-06-14T02:08:56;101336.16;;;15.98;70.31
15750;BME280;7976;52.526;13.326;2023-06-14T02:11:23;101339.81;;;15.95;70.46
15750;BME280;7976;52.526;13.326;2023-06-14T02:13:51;101347.03;;;15.92;70.76
15750;BME280;7976;52.526;13.326;2023-06-14T02:16:19;101345.38;;;15.89;70.23
15750;BME280;7976;52.526;13.326;2023-06-14T02:18:47;101347.31;;;15.86;70.75
15750;BME280;7976;52.526;13.326;2023-06-14T02:21:14;101342.03;;;15.86;70.90
15750;BME280;7976;52.526;13.326;2023-06-14T02:23:41;101343.75;;;15.87;70.75
15750;BME280;7976;52.526;13.326;2023-06-14T02:26:08;101344.63;;;15.87;70.64
15750;BME280;7976;52.526;13.326;2023-06-14T02:28:35;101333.44;;;15.82;70.65
15750;BME280;7976;52.526;13.326;2023-06-14T02:31:03;101343.28;;;15.79;70.90
15750;BME280;7976;52.526;13.326;2023-06-14T02:33:31;101340.00;;;15.74;70.83
15750;BME280;7976;52.526;13.326;2023-06-14T02:35:58;101341.88;;;15.72;71.09
15750;BME280;7976;52.526;13.326;2023-06-14T02:38:26;101343.88;;;15.67;71.26
15750;BME280;7976;52.526;13.326;2023-06-14T02:40:53;101339.59;;;15.64;71.48
15750;BME280;7976;52.526;13.326;2023-06-14T02:43:20;101346.66;;;15.64;71.57
15750;BME280;7976;52.526;13.326;2023-06-14T02:45:47;101338.75;;;15.64;71.34
15750;BME280;7976;52.526;13.326;2023-06-14T02:48:14;101339.59;;;15.64;71.68
15750;BME280;7976;52.526;13.326;2023-06-14T02:50:43;101346.78;;;15.61;71.48
15750;BME280;7976;52.526;13.326;2023-06-14T02:53:10;101343.47;;;15.57;71.52
15750;BME280;7976;52.526;13.326;2023-06-14T02:55:37;101347.16;;;15.53;71.86
15750;BME280;7976;52.526;13.326;2023-06-14T02:58:06;101342.19;;;15.47;72.06
15750;BME280;7976;52.526;13.326;2023-06-14T03:00:33;101344.19;;;15.42;72.47
15750;BME280;7976;52.526;13.326;2023-06-14T03:03:02;101350.47;;;15.40;72.58
15750;BME280;7976;52.526;13.326;2023-06-14T03:05:31;101350.47;;;15.40;72.93
15750;BME280;7976;52.526;13.326;2023-06-14T03:08:01;101340.78;;;15.40;72.94
15750;BME280;7976;52.526;13.326;2023-06-14T03:10:28;101334.47;;;15.43;72.91
15750;BME280;7976;52.526;13.326;2023-06-14T03:12:57;101341.56;;;15.42;72.99
15750;BME280;7976;52.526;13.326;2023-06-14T03:15:24;101342.47;;;15.41;72.91
15750;BME280;7976;52.526;13.326;2023-06-14T03:17:51;101347.81;;;15.40;72.99
15750;BME280;7976;52.526;13.326;2023-06-14T03:20:20;101349.72;;;15.36;73.29
15750;BME280;7976;52.526;13.326;2023-06-14T03:22:47;101347.16;;;15.35;73.32
15750;BME280;7976;52.526;13.326;2023-06-14T03:25:16;101352.44;;;15.35;73.27
15750;BME280;7976;52.526;13.326;2023-06-14T03:27:47;101346.13;;;15.37;73.34
15750;BME280;7976;52.526;13.326;2023-06-14T03:30:14;101352.16;;;15.41;73.34
15750;BME280;7976;52.526;13.326;2023-06-14T03:32:43;101346.88;;;15.41;73.19
15750;BME280;7976;52.526;13.326;2023-06-14T03:35:10;101359.16;;;15.42;73.33
15750;BME280;7976;52.526;13.326;2023-06-14T03:37:43;101345.91;;;15.43;73.49
15750;BME280;7976;52.526;13.326;2023-06-14T03:40:12;101353.66;;;15.46;73.08
15750;BME280;7976;52.526;13.326;2023-06-14T03:42:43;101351.88;;;15.47;73.16
15750;BME280;7976;52.526;13.326;2023-06-14T03:45:11;101354.44;;;15.48;73.00
15750;BME280;7976;52.526;13.326;2023-06-14T03:47:38;101357.88;;;15.50;73.44
15750;BME280;7976;52.526;13.326;2023-06-14T03:50:07;101363.00;;;15.53;73.06
15750;BME280;7976;52.526;13.326;2023-06-14T03:52:34;101362.06;;;15.54;73.29
15750;BME280;7976;52.526;13.326;2023-06-14T03:55:03;101368.19;;;15.55;73.01
15750;BME280;7976;52.526;13.326;2023-06-14T03:57:32;101369.00;;;15.57;73.13
15750;BME280;7976;52.526;13.326;2023-06-14T04:00:01;101359.22;;;15.59;73.02
15750;BME280;7976;52.526;13.326;2023-06-14T04:02:40;101366.84;;;15.65;72.99
15750;BME280;7976;52.526;13.326;2023-06-14T04:05:09;101370.19;;;15.68;72.71
15750;BME280;7976;52.526;13.326;2023-06-14T04:07:41;101364.84;;;15.70;72.80
15750;BME280;7976;52.526;13.326;2023-06-14T04:10:11;101370.81;;;15.73;72.83
15750;BME280;7976;52.526;13.326;2023-06-14T04:12:38;101375.94;;;15.76;72.46
15750;BME280;7976;52.526;13.326;2023-06-14T04:15:09;101382.00;;;15.78;72.43
15750;BME280;7976;52.526;13.326;2023-06-14T04:17:38;101385.44;;;15.80;72.45
15750;BME280;7976;52.526;13.326;2023-06-14T04:20:07;101382.72;;;15.82;72.39
15750;BME280;7976;52.526;13.326;2023-06-14T04:22:36;101376.34;;;15.86;72.54
15750;BME280;7976;52.526;13.326;2023-06-14T04:25:05;101392.78;;;15.92;72.12
15750;BME280;7976;52.526;13.326;2023-06-14T04:27:33;101387.34;;;15.95;72.08
15750;BME280;7976;52.526;13.326;2023-06-14T04:30:03;101379.19;;;16.00;72.08
15750;BME280;7976;52.526;13.326;2023-06-14T04:32:38;101382.44;;;16.05;71.93
15750;BME280;7976;52.526;13.326;2023-06-14T04:35:08;101392.84;;;16.08;71.76
15750;BME280;7976;52.526;13.326;2023-06-14T04:37:38;101384.78;;;16.11;71.50
15750;BME280;7976;52.526;13.326;2023-06-14T04:40:10;101388.03;;;16.16;71.35
15750;BME280;7976;52.526;13.326;2023-06-14T04:42:38;101389.63;;;16.20;71.16
15750;BME280;7976;52.526;13.326;2023-06-14T04:45:09;101386.91;;;16.21;71.04
15750;BME280;7976;52.526;13.326;2023-06-14T04:47:39;101380.69;;;16.22;71.35
15750;BME280;7976;52.526;13.326;2023-06-14T04:50:09;101383.88;;;16.29;70.88
15750;BME280;7976;52.526;13.326;2023-06-14T04:52:36;101381.78;;;16.36;70.81
15750;BME280;7976;52.526;13.326;2023-06-14T04:55:06;101381.47;;;16.42;70.10
15750;BME280;7976;52.526;13.326;2023-06-14T04:57:33;101385.75;;;16.44;70.39
15750;BME280;7976;52.526;13.326;2023-06-14T05:00:01;101381.19;;;16.48;70.18
15750;BME280;7976;52.526;13.326;2023-06-14T05:02:31;101393.16;;;16.55;69.78
15750;BME280;7976;52.526;13.326;2023-06-14T05:05:01;101398.97;;;16.61;69.83
15750;BME280;7976;52.526;13.326;2023-06-14T05:07:28;101397.09;;;16.63;69.77
15750;BME280;7976;52.526;13.326;2023-06-14T05:09:56;101395.06;;;16.68;69.50
15750;BME280;7976;52.526;13.326;2023-06-14T05:12:23;101401.16;;;16.70;69.35
15750;BME280;7976;52.526;13.326;2023-06-14T05:14:50;101395.69;;;16.73;69.46
15750;BME280;7976;52.526;13.326;2023-06-14T05:17:19;101394.78;;;16.74;69.37
15750;BME280;7976;52.526;13.326;2023-06-14T05:19:47;101390.41;;;16.73;69.45
15750;BME280;7976;52.526;13.326;2023-06-14T05:22:15;101396.47;;;16.75;69.30
15750;BME280;7976;52.526;13.326;2023-06-14T05:24:42;101400.91;;;16.75;69.40
15750;BME280;7976;52.526;13.326;2023-06-14T05:27:10;101404.50;;;16.74;69.41
15750;BME280;7976;52.526;13.326;2023-06-14T05:29:38;101405.19;;;16.77;69.18
15750;BME280;7976;52.526;13.326;2023-06-14T05:32:09;101403.16;;;16.82;69.21
15750;BME280;7976;52.526;13.326;2023-06-14T05:34:36;101412.63;;;16.86;69.10
15750;BME280;7976;52.526;13.326;2023-06-14T05:37:04;101415.88;;;16.91;69.05
15750;BME280;7976;52.526;13.326;2023-06-14T05:39:33;101412.16;;;16.95;68.81
15750;BME280;7976;52.526;13.326;2023-06-14T05:42:00;101411.06;;;16.99;68.61
15750;BME280;7976;52.526;13.326;2023-06-14T05:44:27;101402.03;;;17.03;68.44
15750;BME280;7976;52.526;13.326;2023-06-14T05:46:54;101416.63;;;17.10;68.46
15750;BME280;7976;52.526;13.326;2023-06-14T05:49:22;101415.38;;;17.17;68.21
15750;BME280;7976;52.526;13.326;2023-06-14T05:51:49;101419.41;;;17.24;68.05
15750;BME280;7976;52.526;13.326;2023-06-14T05:54:17;101413.16;;;17.25;67.97
15750;BME280;7976;52.526;13.326;2023-06-14T05:56:45;101415.81;;;17.25;68.17
15750;BME280;7976;52.526;13.326;2023-06-14T05:59:13;101421.03;;;17.27;68.08
15750;BME280;7976;52.526;13.326;2023-06-14T06:01:40;101429.03;;;17.25;68.17
15750;BME280;7976;52.526;13.326;2023-06-14T06:04:08;101434.25;;;17.27;68.17
15750;BME280;7976;52.526;13.326;2023-06-14T06:06:35;101432.47;;;17.27;68.24
15750;BME280;7976;52.526;13.326;2023-06-14T06:09:03;101431.44;;;17.30;68.33
15750;BME280;7976;52.526;13.326;2023-06-14T06:11:30;101429.56;;;17.32;68.18
15750;BME280;7976;52.526;13.326;2023-06-14T06:13:59;101425.13;;;17.32;67.84
15750;BME280;7976;52.526;13.326;2023-06-14T06:16:26;101421.72;;;17.30;67.83
15750;BME280;7976;52.526;13.326;2023-06-14T06:18:53;101431.44;;;17.30;68.09
15750;BME280;7976;52.526;13.326;2023-06-14T06:21:21;101428.88;;;17.28;68.08
15750;BME280;7976;52.526;13.326;2023-06-14T06:23:48;101431.78;;;17.24;68.01
15750;BME280;7976;52.526;13.326;2023-06-14T06:26:15;101435.19;;;17.26;68.14
15750;BME280;7976;52.526;13.326;2023-06-14T06:28:42;101437.84;;;17.26;67.96
15750;BME280;7976;52.526;13.326;2023-06-14T06:31:11;101429.03;;;17.25;68.04
15750;BME280;7976;52.526;13.326;2023-06-14T06:33:38;101429.03;;;17.25;68.00
15750;BME280;7976;52.526;13.326;2023-06-14T06:36:06;101426.22;;;17.28;68.13
15750;BME280;7976;52.526;13.326;2023-06-14T06:38:33;101422.75;;;17.28;68.21
15750;BME280;7976;52.526;13.326;2023-06-14T06:41:00;101421.81;;;17.29;68.14
15750;BME280;7976;52.526;13.326;2023-06-14T06:43:28;101426.84;;;17.33;68.05
15750;BME280;7976;52.526;13.326;2023-06-14T06:45:57;101424.03;;;17.36;67.92
15750;BME280;7976;52.526;13.326;2023-06-14T06:48:25;101429.91;;;17.41;67.95
15750;BME280;7976;52.526;13.326;2023-06-14T06:50:52;101433.34;;;17.43;67.78
15750;BME280;7976;52.526;13.326;2023-06-14T06:53:20;101419.97;;;17.46;68.06
15750;BME280;7976;52.526;13.326;2023-06-14T06:55:48;101433.91;;;17.50;67.81
15750;BME280;7976;52.526;13.326;2023-06-14T06:58:15;101437.06;;;17.57;67.92
15750;BME280;7976;52.526;13.326;2023-06-14T07:00:43;101436.47;;;17.67;67.86
15750;BME280;7976;52.526;13.326;2023-06-14T07:03:10;101426.50;;;17.72;67.45
15750;BME280;7976;52.526;13.326;2023-06-14T07:05:39;101438.72;;;17.75;67.50
15750;BME280;7976;52.526;13.326;2023-06-14T07:08:06;101439.41;;;17.78;67.42
15750;BME280;7976;52.526;13.326;2023-06-14T07:10:33;101450.59;;;17.83;67.17
15750;BME280;7976;52.526;13.326;2023-06-14T07:13:01;101461.94;;;17.85;67.09
15750;BME280;7976;52.526;13.326;2023-06-14T07:15:28;101457.16;;;17.92;67.33
15750;BME280;7976;52.526;13.326;2023-06-14T07:17:55;101463.81;;;17.99;66.84
15750;BME280;7976;52.526;13.326;2023-06-14T07:20:25;101467.06;;;18.04;66.70
15750;BME280;7976;52.526;13.326;2023-06-14T07:22:53;101465.97;;;18.08;66.62
15750;BME280;7976;52.526;13.326;2023-06-14T07:25:20;101460.56;;;18.09;66.19
15750;BME280;7976;52.526;13.326;2023-06-14T07:27:48;101460.47;;;18.11;66.14
15750;BME280;7976;52.526;13.326;2023-06-14T07:30:15;101466.56;;;18.13;65.86
15750;BME280;7976;52.526;13.326;2023-06-14T07:32:43;101468.25;;;18.14;65.86
15750;BME280;7976;52.526;13.326;2023-06-14T07:35:10;101459.38;;;18.15;66.18
15750;BME280;7976;52.526;13.326;2023-06-14T07:37:37;101459.03;;;18.21;66.05
15750;BME280;7976;52.526;13.326;2023-06-14T07:40:07;101451.47;;;18.29;65.92
15750;BME280;7976;52.526;13.326;2023-06-14T07:42:36;101454.22;;;18.43;65.46
15750;BME280;7976;52.526;13.326;2023-06-14T07:45:04;101456.66;;;18.61;65.65
15750;BME280;7976;52.526;13.326;2023-06-14T07:47:32;101462.50;;;18.82;65.02
15750;BME280;7976;52.526;13.326;2023-06-14T07:49:59;101466.91;;;18.97;64.61
15750;BME280;7976;52.526;13.326;2023-06-14T07:52:26;101476.75;;;19.09;64.09
15750;BME280;7976;52.526;13.326;2023-06-14T07:54:53;101466.06;;;19.25;63.65
15750;BME280;7976;52.526;13.326;2023-06-14T07:57:22;101470.56;;;19.38;62.93
15750;BME280;7976;52.526;13.326;2023-06-14T07:59:49;101471.59;;;19.50;62.52
15750;BME280;7976;52.526;13.326;2023-06-14T08:02:17;101463.06;;;19.59;61.83
15750;BME280;7976;52.526;13.326;2023-06-14T08:04:44;101461.72;;;19.66;62.05
15750;BME280;7976;52.526;13.326;2023-06-14T08:07:13;101454.31;;;19.71;61.80
15750;BME280;7976;52.526;13.326;2023-06-14T08:09:40;101453.53;;;19.83;61.31
15750;BME280;7976;52.526;13.326;2023-06-14T08:12:08;101448.28;;;19.95;61.15
15750;BME280;7976;52.526;13.326;2023-06-14T08:18:43;101432.28;;;20.24;59.58
15750;BME280;7976;52.526;13.326;2023-06-14T08:21:11;101443.03;;;20.35;59.27
15750;BME280;7976;52.526;13.326;2023-06-14T08:23:38;101437.00;;;20.33;59.61
15750;BME280;7976;52.526;13.326;2023-06-14T08:26:05;101440.03;;;20.27;59.70
15750;BME280;7976;52.526;13.326;2023-06-14T08:28:32;101438.84;;;20.18;59.55
15750;BME280;7976;52.526;13.326;2023-06-14T08:30:58;101446.34;;;20.12;58.80
15750;BME280;7976;52.526;13.326;2023-06-14T08:33:25;101450.06;;;20.09;58.57
15750;BME280;7976;52.526;13.326;2023-06-14T08:35:53;101447.97;;;20.14;58.98
15750;BME280;7976;52.526;13.326;2023-06-14T08:38:20;101445.38;;;20.27;58.61
15750;BME280;7976;52.526;13.326;2023-06-14T08:40:51;101439.78;;;20.44;57.71
15750;BME280;7976;52.526;13.326;2023-06-14T08:43:19;101442.94;;;20.63;57.27
15750;BME280;7976;52.526;13.326;2023-06-14T08:45:48;101442.19;;;20.73;57.10
15750;BME280;7976;52.526;13.326;2023-06-14T08:48:19;101439.63;;;20.72;57.07
15750;BME280;7976;52.526;13.326;2023-06-14T08:50:48;101437.28;;;20.80;56.63
15750;BME280;7976;52.526;13.326;2023-06-14T08:53:17;101436.13;;;20.84;56.99
15750;BME280;7976;52.526;13.326;2023-06-14T08:55:45;101434.97;;;20.88;56.46
15750;BME280;7976;52.526;13.326;2023-06-14T08:58:13;101432.84;;;20.93;55.83
15750;BME280;7976;52.526;13.326;2023-06-14T09:00:40;101435.53;;;20.93;55.00
15750;BME280;7976;52.526;13.326;2023-06-14T09:03:08;101433.50;;;20.96;55.37
15750;BME280;7976;52.526;13.326;2023-06-14T09:05:39;101434.16;;;21.00;54.89
15750;BME280;7976;52.526;13.326;2023-06-14T09:08:06;101435.88;;;21.01;54.50
15750;BME280;7976;52.526;13.326;2023-06-14T09:10:35;101439.28;;;21.03;54.10
15750;BME280;7976;52.526;13.326;2023-06-14T09:13:03;101443.97;;;20.99;53.06
15750;BME280;7976;52.526;13.326;2023-06-14T09:15:30;101442.88;;;21.02;52.82
15750;BME280;7976;52.526;13.326;2023-06-14T09:17:57;101444.38;;;21.06;52.67
15750;BME280;7976;52.526;13.326;2023-06-14T09:20:25;101447.38;;;21.14;52.71
15750;BME280;7976;52.526;13.326;2023-06-14T09:22:53;101446.75;;;21.23;52.57
15750;BME280;7976;52.526;13.326;2023-06-14T09:25:20;101451.41;;;21.32;52.56
15750;BME280;7976;52.526;13.326;2023-06-14T09:27:49;101448.50;;;21.35;51.91
15750;BME280;7976;52.526;13.326;2023-06-14T09:30:20;101445.78;;;21.37;52.01
15750;BME280;7976;52.526;13.326;2023-06-14T09:32:47;101445.66;;;21.38;52.42
15750;BME280;7976;52.526;13.326;2023-06-14T09:35:17;101448.63;;;21.34;52.39
15750;BME280;7976;52.526;13.326;2023-06-14T09:37:44;101453.66;;;21.26;52.92
15750;BME280;7976;52.526;13.326;2023-06-14T09:40:11;101446.00;;;21.21;53.08
15750;BME280;7976;52.526;13.326;2023-06-14T09:42:38;101446.94;;;21.20;52.90
15750;BME280;7976;52.526;13.326;2023-06-14T09:45:09;101444.59;;;21.28;53.18
15750;BME280;7976;52.526;13.326;2023-06-14T09:47:38;101445.44;;;21.41;53.38
15750;BME280;7976;52.526;13.326;2023-06-14T09:50:06;101440.94;;;21.54;53.21
15750;BME280;7976;52.526;13.326;2023-06-14T09:52:33;101447.34;;;21.52;52.53
15750;BME280;7976;52.526;13.326;2023-06-14T09:55:11;101447.88;;;21.44;51.88
15750;BME280;7976;52.526;13.326;2023-06-14T09:57:41;101442.25;;;21.36;51.33
15750;BME280;7976;52.526;13.326;2023-06-14T10:00:13;101453.84;;;21.35;51.32
15750;BME280;7976;52.526;13.326;2023-06-14T10:02:45;101456.50;;;21.35;51.88
15750;BME280;7976;52.526;13.326;2023-06-14T10:05:19;101444.81;;;21.38;51.78
15750;BME280;7976;52.526;13.326;2023-06-14T10:07:53;101454.91;;;21.45;51.77
15750;BME280;7976;52.526;13.326;2023-06-14T10:10:22;101455.66;;;21.47;52.04
15750;BME280;7976;52.526;13.326;2023-06-14T10:12:49;101449.03;;;21.53;51.83
15750;BME280;7976;52.526;13.326;2023-06-14T10:15:32;101447.97;;;21.55;51.99
15750;BME280;7976;52.526;13.326;2023-06-14T10:18:11;101451.59;;;21.54;52.00
15750;BME280;7976;52.526;13.326;2023-06-14T10:20:54;101442.84;;;21.52;51.92
15750;BME280;7976;52.526;13.326;2023-06-14T10:23:24;101445.50;;;21.52;52.37
15750;BME280;7976;52.526;13.326;2023-06-14T10:25:56;101441.81;;;21.55;52.67
15750;BME280;7976;52.526;13.326;2023-06-14T10:28:25;101430.91;;;21.58;52.63
15750;BME280;7976;52.526;13.326;2023-06-14T10:31:05;101439.66;;;21.60;52.30
15750;BME280;7976;52.526;13.326;2023-06-14T10:33:33;101436.66;;;21.64;52.09
15750;BME280;7976;52.526;13.326;2023-06-14T10:36:25;101438.56;;;21.75;51.92
15750;BME280;7976;52.526;13.326;2023-06-14T10:39:06;101431.22;;;21.78;51.50
15750;BME280;7976;52.526;13.326;2023-06-14T10:41:37;101418.06;;;21.88;51.35
15750;BME280;7976;52.526;13.326;2023-06-14T10:44:39;101421.66;;;21.99;51.01
15750;BME280;7976;52.526;13.326;2023-06-14T10:47:25;101420.06;;;21.97;50.01
15750;BME280;7976;52.526;13.326;2023-06-14T10:49:54;101417.41;;;21.97;50.10
15750;BME280;7976;52.526;13.326;2023-06-14T10:52:26;101422.63;;;21.98;50.41
15750;BME280;7976;52.526;13.326;2023-06-14T10:55:16;101415.34;;;22.00;50.75
15750;BME280;7976;52.526;13.326;2023-06-14T10:57:46;101413.66;;;21.99;50.58
15750;BME280;7976;52.526;13.326;2023-06-14T11:00:18;101409.91;;;22.02;50.47
15750;BME280;7976;52.526;13.326;2023-06-14T11:05:53;101406.31;;;22.14;50.44
15750;BME280;7976;52.526;13.326;2023-06-14T11:08:53;101408.78;;;22.17;50.16
15750;BME280;7976;52.526;13.326;2023-06-14T11:11:32;101406.19;;;22.15;48.69
15750;BME280;7976;52.526;13.326;2023-06-14T11:14:00;101400.66;;;22.18;48.40
15750;BME280;7976;52.526;13.326;2023-06-14T11:16:28;101397.41;;;22.26;48.37
15750;BME280;7976;52.526;13.326;2023-06-14T11:18:56;101399.94;;;22.27;47.68
15750;BME280;7976;52.526;13.326;2023-06-14T11:21:24;101398.25;;;22.26;48.08
15750;BME280;7976;52.526;13.326;2023-06-14T11:23:56;101395.94;;;22.22;47.89
15750;BME280;7976;52.526;13.326;2023-06-14T11:26:27;101399.44;;;22.22;46.56
15750;BME280;7976;52.526;13.326;2023-06-14T11:28:59;101386.97;;;22.23;47.28
15750;BME280;7976;52.526;13.326;2023-06-14T11:31:27;101386.63;;;22.27;47.09
15750;BME280;7976;52.526;13.326;2023-06-14T11:33:57;101386.44;;;22.42;47.01
15750;BME280;7976;52.526;13.326;2023-06-14T11:36:27;101385.22;;;22.46;46.77
15750;BME280;7976;52.526;13.326;2023-06-14T11:38:59;101383.56;;;22.56;46.79
15750;BME280;7976;52.526;13.326;2023-06-14T11:41:34;101378.03;;;22.70;46.16
15750;BME280;7976;52.526;13.326;2023-06-14T11:44:02;101370.66;;;22.73;46.09
15750;BME280;7976;52.526;13.326;2023-06-14T11:46:29;101376.28;;;22.92;45.74
15750;BME280;7976;52.526;13.326;2023-06-14T11:48:57;101364.59;;;23.04;44.99
15750;BME280;7976;52.526;13.326;2023-06-14T11:51:24;101358.78;;;23.10;45.01
15750;BME280;7976;52.526;13.326;2023-06-14T11:53:51;101356.34;;;23.18;44.66
15750;BME280;7976;52.526;13.326;2023-06-14T11:56:19;101359.66;;;23.33;44.71
15750;BME280;7976;52.526;13.326;2023-06-14T11:58:46;101346.75;;;23.49;44.08
15750;BME280;7976;52.526;13.326;2023-06-14T12:01:16;101351.81;;;23.63;43.78
15750;BME280;7976;52.526;13.326;2023-06-14T12:03:48;101341.13;;;23.74;43.51
15750;BME280;7976;52.526;13.326;2023-06-14T12:06:25;101339.50;;;23.83;43.59
15750;BME280;7976;52.526;13.326;2023-06-14T12:08:56;101337.44;;;23.86;43.56
15750;BME280;7976;52.526;13.326;2023-06-14T12:11:23;101334.97;;;23.83;42.71
15750;BME280;7976;52.526;13.326;2023-06-14T12:13:50;101333.44;;;23.81;41.65
15750;BME280;7976;52.526;13.326;2023-06-14T12:16:17;101327.75;;;23.74;41.90
15750;BME280;7976;52.526;13.326;2023-06-14T12:18:44;101328.22;;;23.68;42.22
15750;BME280;7976;52.526;13.326;2023-06-14T12:21:11;101322.88;;;23.68;41.58
15750;BME280;7976;52.526;13.326;2023-06-14T12:23:47;101329.59;;;23.63;41.56
15750;BME280;7976;52.526;13.326;2023-06-14T12:26:16;101324.13;;;23.53;41.90
15750;BME280;7976;52.526;13.326;2023-06-14T12:28:45;101315.16;;;23.43;41.27
15750;BME280;7976;52.526;13.326;2023-06-14T12:31:14;101312.28;;;23.46;41.06
15750;BME280;7976;52.526;13.326;2023-06-14T12:33:42;101320.97;;;23.59;40.49
15750;BME280;7976;52.526;13.326;2023-06-14T12:36:11;101312.06;;;23.70;40.21
15750;BME280;7976;52.526;13.326;2023-06-14T12:38:38;101313.84;;;23.80;40.55
15750;BME280;7976;52.526;13.326;2023-06-14T12:41:06;101305.06;;;23.89;40.10
15750;BME280;7976;52.526;13.326;2023-06-14T12:43:33;101314.06;;;23.99;40.26
15750;BME280;7976;52.526;13.326;2023-06-14T12:46:00;101307.94;;;23.97;39.32
15750;BME280;7976;52.526;13.326;2023-06-14T12:48:27;101310.69;;;23.86;39.99
15750;BME280;7976;52.526;13.326;2023-06-14T12:50:55;101305.81;;;23.80;40.19
15750;BME280;7976;52.526;13.326;2023-06-14T12:53:22;101305.81;;;23.80;40.46
15750;BME280;7976;52.526;13.326;2023-06-14T12:55:49;101296.31;;;23.87;40.11
15750;BME280;7976;52.526;13.326;2023-06-14T12:58:17;101299.94;;;23.97;39.10
15750;BME280;7976;52.526;13.326;2023-06-14T13:00:45;101294.34;;;24.00;39.22
15750;BME280;7976;52.526;13.326;2023-06-14T13:03:12;101289.97;;;23.99;38.79
15750;BME280;7976;52.526;13.326;2023-06-14T13:05:39;101290.94;;;23.98;37.67
15750;BME280;7976;52.526;13.326;2023-06-14T13:08:07;101297.88;;;24.01;37.63